Time;durP1;ratioP1;P1;durP2;ratioP2;P2;SDS_P1;SDS_P2;PMS_P1;PMS_P2;Temp;Humidity;BMP_temperature;BMP_pressure;BME280_temperature;BME280_humidity;BME280_pressure;Samples;Min_cycle;Max_cycle;Signal;HPM_P1;HPM_P2
2023/08/11 00:00:47;;;;;;;0.60;0.50;;;16.60;99.90;;;;;;5054053;28;20041;-71
2023/08/11 00:03:14;;;;;;;0.40;0.40;;;16.60;99.90;;;;;;5053398;28;20037;-71
2023/08/11 00:05:40;;;;;;;0.40;0.40;;;16.50;99.90;;;;;;5053457;28;20098;-71
2023/08/11 00:08:06;;;;;;;0.70;0.70;;;16.50;99.90;;;;;;5053673;28;20036;-71
2023/08/11 00:10:33;;;;;;;0.65;0.63;;;16.40;99.90;;;;;;5053386;28;20049;-72
2023/08/11 00:12:59;;;;;;;0.40;0.40;;;16.40;99.90;;;;;;5053399;28;20052;-72
2023/08/11 00:15:24;;;;;;;0.30;0.30;;;16.30;99.90;;;;;;5053380;28;20065;-72
2023/08/11 00:17:57;;;;;;;0.60;0.50;;;16.30;99.90;;;;;;5053341;28;20080;-72
2023/08/11 00:20:23;;;;;;;0.45;0.45;;;16.20;99.90;;;;;;5053346;28;20091;-71
2023/08/11 00:22:49;;;;;;;0.30;0.30;;;16.20;99.90;;;;;;5053336;28;20473;-71
2023/08/11 00:25:15;;;;;;;0.30;0.30;;;16.10;99.90;;;;;;5053328;28;20094;-71
2023/08/11 00:27:40;;;;;;;0.50;0.50;;;16.10;99.90;;;;;;5053301;28;20068;-71
2023/08/11 00:30:07;;;;;;;0.67;0.53;;;16.10;99.90;;;;;;5053332;28;20040;-72
2023/08/11 00:32:32;;;;;;;1.35;0.60;;;16.10;99.90;;;;;;5053285;28;20041;-71
2023/08/11 00:34:58;;;;;;;0.80;0.40;;;16.00;99.90;;;;;;5053087;28;20542;-71
2023/08/11 00:37:23;;;;;;;0.30;0.30;;;16.00;99.90;;;;;;5054137;28;20143;-72
2023/08/11 00:39:51;;;;;;;0.50;0.40;;;15.90;99.90;;;;;;5057160;28;20040;-71
2023/08/11 00:42:17;;;;;;;0.30;0.30;;;15.90;99.90;;;;;;5056990;28;20041;-71
2023/08/11 00:44:43;;;;;;;0.40;0.40;;;15.90;99.90;;;;;;5057043;28;20040;-71
2023/08/11 00:47:09;;;;;;;0.53;0.53;;;15.80;99.90;;;;;;5057098;28;20366;-71
2023/08/11 00:49:34;;;;;;;1.50;0.67;;;15.80;99.90;;;;;;5056953;28;20544;-71
2023/08/11 00:52:00;;;;;;;0.50;0.47;;;15.80;99.90;;;;;;5056932;28;20120;-72
2023/08/11 00:54:27;;;;;;;0.30;0.30;;;15.80;99.90;;;;;;5056884;28;20412;-72
2023/08/11 00:56:53;;;;;;;0.30;0.30;;;15.70;99.90;;;;;;5056787;28;20044;-71
2023/08/11 00:59:19;;;;;;;0.50;0.50;;;15.70;99.90;;;;;;5056831;28;20431;-71
2023/08/11 01:01:45;;;;;;;0.63;0.40;;;15.70;99.90;;;;;;5057044;28;20354;-71
2023/08/11 01:04:12;;;;;;;0.40;0.40;;;15.70;99.90;;;;;;5056966;28;20048;-71
2023/08/11 01:06:53;;;;;;;0.30;0.30;;;15.60;99.90;;;;;;5056700;28;20086;-72
2023/08/11 01:09:35;;;;;;;0.40;0.40;;;15.60;99.90;;;;;;5056642;28;20045;-71
2023/08/11 01:12:07;;;;;;;0.77;0.77;;;15.50;99.90;;;;;;5057040;28;20036;-72
2023/08/11 01:14:48;;;;;;;1.15;0.68;;;15.50;99.90;;;;;;5056270;28;20526;-71
2023/08/11 01:17:16;;;;;;;0.40;0.40;;;15.50;99.90;;;;;;5056376;28;20539;-72
2023/08/11 01:19:42;;;;;;;0.57;0.57;;;15.50;99.90;;;;;;5056321;28;20057;-71
2023/08/11 01:22:14;;;;;;;0.30;0.30;;;15.50;99.90;;;;;;5056017;28;20045;-71
2023/08/11 01:24:43;;;;;;;0.30;0.30;;;15.40;99.90;;;;;;5056375;28;20044;-72
2023/08/11 01:27:08;;;;;;;0.30;0.30;;;15.40;99.90;;;;;;5056235;28;20039;-71
2023/08/11 01:29:34;;;;;;;0.33;0.33;;;15.40;99.90;;;;;;5056297;28;20119;-72
2023/08/11 01:32:00;;;;;;;0.30;0.30;;;15.40;99.90;;;;;;5056256;28;20037;-72
2023/08/11 01:34:26;;;;;;;0.43;0.43;;;15.40;99.90;;;;;;5056095;28;20102;-72
2023/08/11 01:36:59;;;;;;;0.83;0.77;;;15.30;99.90;;;;;;5056117;28;20066;-71
2023/08/11 01:39:25;;;;;;;0.40;0.40;;;15.30;99.90;;;;;;5056421;28;20086;-72
2023/08/11 01:41:51;;;;;;;0.50;0.40;;;15.30;99.90;;;;;;5055920;28;20049;-71
2023/08/11 01:44:17;;;;;;;0.43;0.43;;;15.40;99.90;;;;;;5056191;28;20037;-71
2023/08/11 01:46:44;;;;;;;0.40;0.40;;;15.30;99.90;;;;;;5055839;28;20047;-72
2023/08/11 01:49:12;;;;;;;0.30;0.30;;;15.20;99.90;;;;;;5055766;28;20123;-71
2023/08/11 01:51:39;;;;;;;0.38;0.38;;;15.20;99.90;;;;;;5055782;28;20132;-72
2023/08/11 01:54:05;;;;;;;;;;;15.20;99.90;;;;;;5056181;28;20067;-71
2023/08/11 01:56:31;;;;;;;0.63;0.50;;;15.20;99.90;;;;;;5055699;28;19934;-71
2023/08/11 01:58:57;;;;;;;0.50;0.50;;;15.20;99.90;;;;;;5055639;28;20124;-72
2023/08/11 02:01:22;;;;;;;0.40;0.40;;;15.20;99.90;;;;;;5055600;28;20083;-72
2023/08/11 02:03:49;;;;;;;0.40;0.40;;;15.20;99.90;;;;;;5055529;28;20045;-72
2023/08/11 02:06:14;;;;;;;0.57;0.40;;;15.20;99.90;;;;;;5055542;28;20037;-72
2023/08/11 02:08:40;;;;;;;0.30;0.30;;;15.20;99.90;;;;;;5055954;28;20377;-72
2023/08/11 02:11:06;;;;;;;0.37;0.37;;;15.20;99.90;;;;;;5055260;28;20087;-72
2023/08/11 02:13:32;;;;;;;0.80;0.60;;;15.10;99.90;;;;;;5055439;28;20032;-72
2023/08/11 02:15:58;;;;;;;0.63;0.50;;;15.10;99.90;;;;;;5055385;28;20048;-72
2023/08/11 02:18:24;;;;;;;0.73;0.73;;;15.00;99.90;;;;;;5054856;28;20049;-72
2023/08/11 02:20:49;;;;;;;0.40;0.40;;;15.00;99.90;;;;;;5055284;28;20457;-72
2023/08/11 02:23:15;;;;;;;0.43;0.43;;;15.00;99.90;;;;;;5055008;28;20041;-72
2023/08/11 02:25:41;;;;;;;0.40;0.40;;;15.00;99.90;;;;;;5055163;28;20128;-72
2023/08/11 02:28:07;;;;;;;0.30;0.30;;;15.00;99.90;;;;;;5055426;28;20044;-72
2023/08/11 02:30:32;;;;;;;0.57;0.57;;;15.00;99.90;;;;;;5055097;28;20063;-72
2023/08/11 02:32:59;;;;;;;0.40;0.40;;;15.00;99.90;;;;;;5055017;28;20044;-72
2023/08/11 02:35:24;;;;;;;0.40;0.40;;;14.90;99.90;;;;;;5055654;28;20062;-72
2023/08/11 02:37:50;;;;;;;0.68;0.68;;;14.90;99.90;;;;;;5055001;28;20502;-72
2023/08/11 02:40:19;;;;;;;0.40;0.40;;;14.90;99.90;;;;;;5055620;28;20079;-72
2023/08/11 02:42:52;;;;;;;0.50;0.50;;;14.80;99.90;;;;;;5054735;28;20080;-72
2023/08/11 02:45:18;;;;;;;0.50;0.50;;;14.80;99.90;;;;;;5054919;28;20098;-72
2023/08/11 02:47:44;;;;;;;0.40;0.40;;;14.80;99.90;;;;;;5054725;28;20415;-72
2023/08/11 02:50:10;;;;;;;0.40;0.40;;;14.80;99.90;;;;;;5055030;28;20095;-72
2023/08/11 02:52:36;;;;;;;0.70;0.45;;;14.80;99.90;;;;;;5054522;28;20532;-72
2023/08/11 02:55:03;;;;;;;0.40;0.40;;;14.80;99.90;;;;;;5054483;28;20465;-72
2023/08/11 02:57:29;;;;;;;;;;;14.70;99.90;;;;;;5054951;28;20076;-72
2023/08/11 02:59:54;;;;;;;0.40;0.40;;;14.80;99.90;;;;;;5054387;28;20379;-72
2023/08/11 03:02:20;;;;;;;0.30;0.30;;;14.70;99.90;;;;;;5054356;28;20037;-72
2023/08/11 03:04:47;;;;;;;0.40;0.40;;;14.70;99.90;;;;;;5054480;28;20056;-72
2023/08/11 03:07:12;;;;;;;1.20;0.77;;;14.70;99.90;;;;;;5054393;28;20041;-72
2023/08/11 03:09:41;;;;;;;0.50;0.50;;;14.70;99.90;;;;;;5054226;28;20075;-72
2023/08/11 03:12:08;;;;;;;0.40;0.40;;;14.70;99.90;;;;;;5054488;28;20369;-72
2023/08/11 03:14:36;;;;;;;1.35;0.70;;;14.70;99.90;;;;;;5054075;28;20036;-72
2023/08/11 03:17:06;;;;;;;0.30;0.30;;;14.70;99.90;;;;;;5054084;28;20057;-72
2023/08/11 03:19:32;;;;;;;0.40;0.40;;;14.70;99.90;;;;;;5054855;28;20388;-72
2023/08/11 03:21:59;;;;;;;0.95;0.57;;;14.70;99.90;;;;;;5054197;28;20052;-72
2023/08/11 03:24:25;;;;;;;0.40;0.40;;;14.60;99.90;;;;;;5054133;28;20194;-72
2023/08/11 03:26:50;;;;;;;0.47;0.47;;;14.60;99.90;;;;;;5054037;28;20065;-72
2023/08/11 03:29:16;;;;;;;1.23;0.73;;;14.60;99.90;;;;;;5053963;28;20052;-72
2023/08/11 03:31:42;;;;;;;0.55;0.55;;;14.60;99.90;;;;;;5053834;28;20041;-72
2023/08/11 03:34:07;;;;;;;0.30;0.30;;;14.60;99.90;;;;;;5053915;28;20049;-72
2023/08/11 03:36:33;;;;;;;0.50;0.50;;;14.60;99.90;;;;;;5053721;28;20051;-72
2023/08/11 03:38:59;;;;;;;0.30;0.30;;;14.60;99.90;;;;;;5054058;28;20044;-72
2023/08/11 03:41:24;;;;;;;1.00;0.50;;;14.60;99.90;;;;;;5053774;28;20111;-72
2023/08/11 03:43:50;;;;;;;0.40;0.40;;;14.50;99.90;;;;;;5053817;28;20037;-72
2023/08/11 03:46:16;;;;;;;0.52;0.50;;;14.50;99.90;;;;;;5053689;28;20045;-72
2023/08/11 03:48:42;;;;;;;0.53;0.53;;;14.50;99.90;;;;;;5053661;28;20473;-72
2023/08/11 03:51:08;;;;;;;0.50;0.50;;;14.50;99.90;;;;;;5053682;28;20049;-72
2023/08/11 03:53:34;;;;;;;0.40;0.40;;;14.50;99.90;;;;;;5053685;28;20043;-72
2023/08/11 03:56:00;;;;;;;0.30;0.30;;;14.40;99.90;;;;;;5053873;28;20131;-72
2023/08/11 03:58:26;;;;;;;0.38;0.38;;;14.50;99.90;;;;;;5053585;28;20091;-72
2023/08/11 04:00:53;;;;;;;0.40;0.40;;;14.50;99.90;;;;;;5053400;28;20115;-72
2023/08/11 04:03:19;;;;;;;0.40;0.40;;;14.50;99.90;;;;;;5053455;28;20279;-72
2023/08/11 04:05:45;;;;;;;0.50;0.50;;;14.40;99.90;;;;;;5052642;28;20086;-72
2023/08/11 04:08:11;;;;;;;0.52;0.52;;;14.50;99.90;;;;;;5053623;28;20041;-72
2023/08/11 04:10:37;;;;;;;0.43;0.40;;;14.50;99.90;;;;;;5052705;28;20127;-72
2023/08/11 04:13:03;;;;;;;0.40;0.40;;;14.50;99.90;;;;;;5055619;28;20489;-72
2023/08/11 04:15:31;;;;;;;0.60;0.60;;;14.50;99.90;;;;;;5057580;28;20389;-72
2023/08/11 04:17:57;;;;;;;0.40;0.40;;;14.50;99.90;;;;;;5057611;28;20057;-72
2023/08/11 04:20:23;;;;;;;1.07;0.60;;;14.50;99.90;;;;;;5057601;28;20051;-72
2023/08/11 04:22:48;;;;;;;0.73;0.70;;;14.40;99.90;;;;;;5057443;28;20056;-72
2023/08/11 04:25:14;;;;;;;0.40;0.40;;;14.50;99.90;;;;;;5057385;28;20037;-72
2023/08/11 04:27:40;;;;;;;0.30;0.30;;;14.50;99.90;;;;;;5056352;28;20052;-72
2023/08/11 04:30:07;;;;;;;0.50;0.50;;;14.50;99.90;;;;;;5057264;28;20037;-72
2023/08/11 04:32:33;;;;;;;0.30;0.30;;;14.50;99.90;;;;;;5057334;28;20373;-72
2023/08/11 04:34:59;;;;;;;0.30;0.30;;;14.50;99.90;;;;;;5057322;28;20041;-72
2023/08/11 04:37:25;;;;;;;0.30;0.30;;;14.50;99.90;;;;;;5057269;28;20056;-72
2023/08/11 04:39:51;;;;;;;0.40;0.40;;;14.50;99.90;;;;;;5057276;28;20045;-71
2023/08/11 04:42:16;;;;;;;0.50;0.50;;;14.50;99.90;;;;;;5057014;28;20046;-71
2023/08/11 04:44:42;;;;;;;0.38;0.38;;;14.50;99.90;;;;;;5057078;28;20151;-73
2023/08/11 04:47:08;;;;;;;0.50;0.50;;;14.60;99.90;;;;;;5057083;28;20081;-73
2023/08/11 04:49:34;;;;;;;0.47;0.47;;;14.60;99.90;;;;;;5057333;28;20029;-73
2023/08/11 04:51:59;;;;;;;0.50;0.50;;;14.60;99.90;;;;;;5056973;28;20091;-72
2023/08/11 04:54:25;;;;;;;0.50;0.50;;;14.60;99.90;;;;;;5057167;28;20102;-77
2023/08/11 04:56:51;;;;;;;0.55;0.55;;;14.60;99.90;;;;;;5056801;28;20048;-77
2023/08/11 04:59:18;;;;;;;0.30;0.30;;;14.60;99.90;;;;;;5056798;28;20041;-74
2023/08/11 05:01:43;;;;;;;0.35;0.35;;;14.70;99.90;;;;;;5056704;28;20127;-73
2023/08/11 05:04:09;;;;;;;0.40;0.40;;;14.90;99.90;;;;;;5056316;28;20122;-74
2023/08/11 05:06:35;;;;;;;0.50;0.50;;;14.70;99.90;;;;;;5056323;28;20439;-72
2023/08/11 05:09:02;;;;;;;0.50;0.50;;;14.80;99.90;;;;;;5056893;28;20083;-72
2023/08/11 05:11:28;;;;;;;0.63;0.60;;;14.80;99.90;;;;;;5056170;28;20053;-72
2023/08/11 05:13:54;;;;;;;0.77;0.70;;;14.80;99.90;;;;;;5056490;28;20091;-72
2023/08/11 05:16:20;;;;;;;0.60;0.60;;;14.80;99.90;;;;;;5056245;28;20084;-73
2023/08/11 05:18:46;;;;;;;0.57;0.57;;;14.90;99.90;;;;;;5057157;28;20057;-73
2023/08/11 05:21:13;;;;;;;0.60;0.57;;;15.00;99.90;;;;;;5055981;28;20468;-72
2023/08/11 05:23:38;;;;;;;0.30;0.30;;;15.00;99.90;;;;;;5055830;28;20037;-72
2023/08/11 05:26:04;;;;;;;0.60;0.60;;;15.00;99.90;;;;;;5056345;28;20419;-72
2023/08/11 05:28:30;;;;;;;0.53;0.53;;;15.10;99.90;;;;;;5055975;28;20041;-72
2023/08/11 05:30:56;;;;;;;0.95;0.93;;;15.10;99.90;;;;;;5056293;28;20373;-72
2023/08/11 05:33:23;;;;;;;0.60;0.60;;;15.20;99.90;;;;;;5056715;28;20037;-72
2023/08/11 05:35:49;;;;;;;0.70;0.70;;;15.20;99.90;;;;;;5056225;28;20477;-73
2023/08/11 05:38:14;;;;;;;0.80;0.80;;;15.30;99.90;;;;;;5056128;28;20079;-73
2023/08/11 05:40:42;;;;;;;0.90;0.70;;;15.30;99.90;;;;;;5055992;28;20071;-73
2023/08/11 05:43:08;;;;;;;0.75;0.68;;;15.40;99.90;;;;;;5055959;28;20098;-74
2023/08/11 05:45:33;;;;;;;0.70;0.70;;;15.50;99.90;;;;;;5056035;28;20128;-73
2023/08/11 05:47:59;;;;;;;0.98;0.70;;;15.50;99.90;;;;;;5056485;28;20040;-73
2023/08/11 05:50:25;;;;;;;0.70;0.70;;;15.50;99.90;;;;;;5055922;28;20044;-73
2023/08/11 05:52:50;;;;;;;0.97;0.90;;;15.60;99.90;;;;;;5055834;28;20114;-74
2023/08/11 05:55:16;;;;;;;0.70;0.70;;;15.60;99.90;;;;;;5055762;28;20040;-74
2023/08/11 05:57:42;;;;;;;0.30;0.30;;;15.70;99.90;;;;;;5055663;28;20090;-73
2023/08/11 06:00:09;;;;;;;0.73;0.73;;;15.80;99.90;;;;;;5055447;28;20099;-73
2023/08/11 06:02:34;;;;;;;;;;;15.80;99.90;;;;;;5056457;28;20045;-73
2023/08/11 06:05:00;;;;;;;0.40;0.40;;;15.90;99.90;;;;;;5055584;28;19931;-76
2023/08/11 06:07:25;;;;;;;0.40;0.40;;;16.00;99.90;;;;;;5055451;28;20056;-75
2023/08/11 06:09:51;;;;;;;0.53;0.53;;;16.10;99.90;;;;;;5055768;28;20041;-75
2023/08/11 06:12:17;;;;;;;0.57;0.50;;;16.20;99.90;;;;;;5055529;28;20040;-76
2023/08/11 06:14:42;;;;;;;0.40;0.40;;;16.30;99.90;;;;;;5055378;28;20103;-76
2023/08/11 06:17:08;;;;;;;0.70;0.60;;;16.40;99.90;;;;;;5053914;28;20064;-76
2023/08/11 06:19:34;;;;;;;0.50;0.50;;;16.50;99.90;;;;;;5054568;28;20067;-75
2023/08/11 06:21:59;;;;;;;0.50;0.50;;;16.70;99.90;;;;;;5054328;28;20036;-76
2023/08/11 06:24:25;;;;;;;0.40;0.40;;;16.80;99.90;;;;;;5054755;28;20478;-76
2023/08/11 06:26:51;;;;;;;0.70;0.70;;;16.90;99.90;;;;;;5054841;28;20033;-76
2023/08/11 06:29:17;;;;;;;0.55;0.55;;;17.00;99.90;;;;;;5054454;28;20044;-75
2023/08/11 06:31:43;;;;;;;0.67;0.67;;;17.20;99.90;;;;;;5054670;28;20461;-75
2023/08/11 06:34:09;;;;;;;0.50;0.50;;;17.30;99.90;;;;;;5054894;28;20055;-76
2023/08/11 06:36:34;;;;;;;0.50;0.50;;;17.40;99.90;;;;;;5053973;28;20047;-75
2023/08/11 06:39:00;;;;;;;0.50;0.50;;;17.50;99.90;;;;;;5054919;28;20045;-76
2023/08/11 06:41:25;;;;;;;0.53;0.53;;;17.70;99.90;;;;;;5054479;28;20538;-75
2023/08/11 06:43:53;;;;;;;0.43;0.43;;;17.80;99.90;;;;;;5054430;28;20095;-76
2023/08/11 06:46:18;;;;;;;0.60;0.60;;;17.90;99.90;;;;;;5054716;28;20048;-76
2023/08/11 06:48:44;;;;;;;0.47;0.43;;;18.00;99.90;;;;;;5054637;28;20053;-75
2023/08/11 06:51:10;;;;;;;0.40;0.40;;;18.10;99.90;;;;;;5054735;28;20047;-76
2023/08/11 06:53:35;;;;;;;0.73;0.67;;;18.30;99.90;;;;;;5054457;28;20098;-76
2023/08/11 06:56:01;;;;;;;0.60;0.60;;;18.40;99.90;;;;;;5054534;28;20119;-76
2023/08/11 06:58:26;;;;;;;0.40;0.40;;;18.50;99.90;;;;;;5054158;28;20102;-75
2023/08/11 07:00:52;;;;;;;0.40;0.40;;;18.60;99.90;;;;;;5054337;28;20140;-75
2023/08/11 07:03:18;;;;;;;0.73;0.73;;;18.70;99.90;;;;;;5054485;28;20128;-76
2023/08/11 07:05:43;;;;;;;0.60;0.60;;;18.90;99.90;;;;;;5054355;28;20044;-76
2023/08/11 07:08:09;;;;;;;0.40;0.40;;;19.00;99.90;;;;;;5054517;28;20460;-76
2023/08/11 07:10:35;;;;;;;0.67;0.30;;;19.10;99.90;;;;;;5054226;28;20040;-76
2023/08/11 07:13:01;;;;;;;1.85;0.90;;;19.20;99.90;;;;;;5053815;28;20037;-76
2023/08/11 07:15:27;;;;;;;1.00;0.60;;;19.30;99.90;;;;;;5054126;28;20048;-76
2023/08/11 07:17:52;;;;;;;0.33;0.33;;;19.50;99.90;;;;;;5054172;28;20055;-76
2023/08/11 07:20:18;;;;;;;0.33;0.33;;;19.60;99.90;;;;;;5054195;28;20362;-76
2023/08/11 07:22:44;;;;;;;0.30;0.30;;;19.70;99.90;;;;;;5053796;28;20072;-75
2023/08/11 07:25:10;;;;;;;0.32;0.32;;;19.80;99.90;;;;;;5053933;28;20044;-79
2023/08/11 07:27:36;;;;;;;0.50;0.50;;;19.80;99.90;;;;;;5053754;28;20307;-75
2023/08/11 07:30:02;;;;;;;0.53;0.53;;;20.00;99.90;;;;;;5053830;28;20159;-74
2023/08/11 07:32:28;;;;;;;0.40;0.40;;;20.00;99.90;;;;;;5054086;28;20086;-77
2023/08/11 07:34:54;;;;;;;0.30;0.30;;;20.20;99.90;;;;;;5053725;28;20037;-77
2023/08/11 07:37:19;;;;;;;0.53;0.50;;;20.20;99.90;;;;;;5053530;28;20496;-73
2023/08/11 07:39:45;;;;;;;0.40;0.40;;;20.30;99.90;;;;;;5053691;28;20555;-75
2023/08/11 07:42:10;;;;;;;0.87;0.77;;;20.40;99.90;;;;;;5053566;28;20041;-75
2023/08/11 07:44:36;;;;;;;0.70;0.40;;;20.50;99.90;;;;;;5053514;28;20036;-76
2023/08/11 07:47:02;;;;;;;0.30;0.30;;;20.60;99.90;;;;;;5053243;28;20080;-75
2023/08/11 07:49:28;;;;;;;0.80;0.80;;;20.60;99.90;;;;;;5053611;28;20084;-71
2023/08/11 07:51:54;;;;;;;0.30;0.30;;;20.80;99.90;;;;;;5053274;28;20040;-72
2023/08/11 07:54:20;;;;;;;0.43;0.38;;;20.80;99.90;;;;;;5053553;28;20044;-73
2023/08/11 07:56:46;;;;;;;0.40;0.40;;;20.90;99.90;;;;;;5053228;28;20385;-73
2023/08/11 07:59:11;;;;;;;0.30;0.30;;;21.00;99.90;;;;;;5053403;28;20362;-73
2023/08/11 08:01:37;;;;;;;1.07;0.70;;;21.10;99.90;;;;;;5053496;28;20052;-73
2023/08/11 08:04:04;;;;;;;0.30;0.30;;;21.20;99.90;;;;;;5069020;28;20032;-74
2023/08/11 08:06:30;;;;;;;0.43;0.40;;;21.30;99.90;;;;;;5053339;28;20033;-73
2023/08/11 08:08:56;;;;;;;0.65;0.30;;;21.40;99.90;;;;;;5053635;28;20048;-76
2023/08/11 08:11:22;;;;;;;0.33;0.33;;;21.60;99.90;;;;;;5053234;28;20048;-74
2023/08/11 08:13:47;;;;;;;1.80;0.53;;;21.60;99.90;;;;;;5053166;28;20056;-75
2023/08/11 08:16:13;;;;;;;0.30;0.30;;;21.80;99.90;;;;;;5053424;28;20377;-75
2023/08/11 08:18:39;;;;;;;0.37;0.37;;;21.90;99.90;;;;;;5053058;28;20126;-74
2023/08/11 08:21:04;;;;;;;0.40;0.40;;;21.90;99.90;;;;;;5053147;28;20073;-74
2023/08/11 08:23:30;;;;;;;0.50;0.50;;;22.00;99.90;;;;;;5053126;28;20150;-76
2023/08/11 08:25:55;;;;;;;0.23;0.23;;;22.10;99.90;;;;;;5053226;28;20037;-77
2023/08/11 08:28:21;;;;;;;0.63;0.43;;;22.10;99.90;;;;;;5052766;28;20056;-78
2023/08/11 08:30:47;;;;;;;0.43;0.40;;;22.20;99.90;;;;;;5053388;28;20477;-73
2023/08/11 08:33:12;;;;;;;0.40;0.40;;;22.30;99.90;;;;;;5053135;28;20075;-73
2023/08/11 08:35:38;;;;;;;0.40;0.40;;;22.40;99.90;;;;;;5053058;28;20037;-74
2023/08/11 08:38:05;;;;;;;0.87;0.60;;;22.50;99.90;;;;;;5052938;28;20447;-73
2023/08/11 08:40:34;;;;;;;0.73;0.73;;;22.50;99.90;;;;;;5052852;28;20045;-74
2023/08/11 08:43:00;;;;;;;0.30;0.30;;;22.50;99.90;;;;;;5052492;28;20088;-73
2023/08/11 08:45:25;;;;;;;0.73;0.73;;;22.60;99.90;;;;;;5053055;28;20049;-74
2023/08/11 08:47:52;;;;;;;0.50;0.50;;;22.60;99.90;;;;;;5053013;28;20520;-73
2023/08/11 08:50:18;;;;;;;0.30;0.30;;;22.70;99.90;;;;;;5052871;28;20041;-73
2023/08/11 08:52:45;;;;;;;0.30;0.30;;;22.80;99.90;;;;;;5052938;28;20391;-73
2023/08/11 08:55:11;;;;;;;0.45;0.45;;;22.90;99.90;;;;;;5052550;28;20037;-73
2023/08/11 08:57:37;;;;;;;0.30;0.30;;;23.00;99.90;;;;;;5052812;28;20531;-73
2023/08/11 09:00:03;;;;;;;0.30;0.30;;;23.10;99.90;;;;;;5056213;28;20029;-73
2023/08/11 09:02:30;;;;;;;0.65;0.65;;;23.20;99.90;;;;;;5056634;28;20299;-72
2023/08/11 09:04:56;;;;;;;;;;;23.30;99.90;;;;;;5057047;28;20045;-73
2023/08/11 09:07:22;;;;;;;0.20;0.20;;;23.40;99.90;;;;;;5056580;28;19924;-74
2023/08/11 09:09:48;;;;;;;0.30;0.30;;;23.40;99.90;;;;;;5056147;28;20049;-73
2023/08/11 09:12:14;;;;;;;0.40;0.40;;;23.50;99.90;;;;;;5056424;28;20036;-74
2023/08/11 09:14:41;;;;;;;0.20;0.20;;;23.60;99.90;;;;;;5056491;28;20577;-74
2023/08/11 09:17:08;;;;;;;0.40;0.40;;;23.60;99.90;;;;;;5056398;28;20076;-73
2023/08/11 09:19:34;;;;;;;8.30;0.65;;;23.70;99.90;;;;;;5056435;28;20041;-73
2023/08/11 09:22:00;;;;;;;;;;;23.80;99.90;;;;;;5056578;28;20124;-74
2023/08/11 09:24:29;;;;;;;0.30;0.30;;;23.90;99.90;;;;;;5056225;28;20014;-73
2023/08/11 09:26:57;;;;;;;0.20;0.20;;;24.00;99.90;;;;;;5056087;28;20133;-74
2023/08/11 09:29:23;;;;;;;0.20;0.20;;;24.10;99.90;;;;;;5056258;28;20044;-73
2023/08/11 09:31:53;;;;;;;0.30;0.30;;;24.30;99.90;;;;;;5055988;28;20465;-73
2023/08/11 09:34:19;;;;;;;0.30;0.30;;;24.30;99.90;;;;;;5055839;28;20481;-74
2023/08/11 09:36:47;;;;;;;0.55;0.50;;;24.40;99.90;;;;;;5055647;28;20120;-74
2023/08/11 09:39:13;;;;;;;0.30;0.30;;;24.50;99.90;;;;;;5056080;28;20048;-77
2023/08/11 09:41:47;;;;;;;0.30;0.30;;;24.50;99.90;;;;;;5055782;28;20124;-77
2023/08/11 09:44:21;;;;;;;0.30;0.30;;;24.60;99.90;;;;;;5055942;28;20048;-75
2023/08/11 09:46:48;;;;;;;0.40;0.40;;;24.60;99.90;;;;;;5055910;28;20129;-77
2023/08/11 09:49:13;;;;;;;;;;;24.60;99.90;;;;;;5071734;28;20053;-76
2023/08/11 09:51:40;;;;;;;0.40;0.40;;;24.70;99.90;;;;;;5055689;28;20242;-74
2023/08/11 09:54:08;;;;;;;0.40;0.40;;;24.80;99.90;;;;;;5055313;28;20037;-74
2023/08/11 09:56:36;;;;;;;0.38;0.38;;;24.80;99.90;;;;;;5055856;28;20149;-74
2023/08/11 09:59:08;;;;;;;0.30;0.30;;;24.80;99.90;;;;;;5055634;28;20086;-75
2023/08/11 10:01:34;;;;;;;0.50;0.45;;;24.90;99.90;;;;;;5055545;28;20041;-74
2023/08/11 10:04:10;;;;;;;0.25;0.25;;;25.00;99.90;;;;;;5055572;28;20044;-74
2023/08/11 10:06:41;;;;;;;0.20;0.20;;;25.10;99.90;;;;;;5054960;28;20119;-74
2023/08/11 10:09:12;;;;;;;0.50;0.50;;;25.10;99.90;;;;;;5055057;28;20045;-73
2023/08/11 10:11:40;;;;;;;0.20;0.20;;;25.10;99.90;;;;;;5054642;28;20041;-75
2023/08/11 10:14:08;;;;;;;0.30;0.30;;;25.10;99.90;;;;;;5055101;28;20041;-76
2023/08/11 10:16:35;;;;;;;0.20;0.20;;;25.10;99.90;;;;;;5055173;28;20127;-75
2023/08/11 10:19:01;;;;;;;0.40;0.40;;;25.20;99.90;;;;;;5055036;28;20056;-74
2023/08/11 10:21:27;;;;;;;0.32;0.32;;;25.40;99.90;;;;;;5054582;28;20465;-73
2023/08/11 10:23:54;;;;;;;0.30;0.30;;;25.40;99.90;;;;;;5055802;28;20159;-77
2023/08/11 10:26:21;;;;;;;0.40;0.40;;;25.40;99.90;;;;;;5055286;28;20057;-77
2023/08/11 10:28:48;;;;;;;0.30;0.30;;;25.50;99.90;;;;;;5055261;28;20119;-73
2023/08/11 10:31:13;;;;;;;0.20;0.20;;;25.60;99.90;;;;;;5055204;28;20037;-73
2023/08/11 10:33:46;;;;;;;0.47;0.47;;;25.70;99.90;;;;;;5055101;28;20461;-74
2023/08/11 10:36:16;;;;;;;0.25;0.25;;;25.70;99.90;;;;;;5053940;28;20350;-74
2023/08/11 10:38:42;;;;;;;0.20;0.20;;;25.70;99.90;;;;;;5054584;28;20575;-74
2023/08/11 10:41:10;;;;;;;0.20;0.20;;;25.70;99.90;;;;;;5054761;28;20041;-74
2023/08/11 10:43:40;;;;;;;0.20;0.20;;;25.80;99.90;;;;;;5054938;28;20114;-74
2023/08/11 10:46:24;;;;;;;0.32;0.32;;;25.90;99.90;;;;;;5054862;28;20072;-76
2023/08/11 10:48:57;;;;;;;0.30;0.30;;;25.90;99.90;;;;;;5054860;28;20043;-76
2023/08/11 10:51:37;;;;;;;1.48;0.57;;;26.10;99.90;;;;;;5055081;28;20044;-76
2023/08/11 10:54:18;;;;;;;0.30;0.30;;;26.20;99.90;;;;;;5054950;28;20055;-77
2023/08/11 10:56:45;;;;;;;0.25;0.25;;;26.20;99.90;;;;;;5054669;28;20081;-82
2023/08/11 10:59:19;;;;;;;0.28;0.28;;;26.40;99.90;;;;;;5054612;28;20372;-79
2023/08/11 11:01:47;;;;;;;0.20;0.20;;;26.50;99.90;;;;;;5054453;28;20037;-75
2023/08/11 11:04:14;;;;;;;0.20;0.20;;;26.50;99.90;;;;;;5054449;28;20051;-74
2023/08/11 11:06:41;;;;;;;0.63;0.63;;;26.60;99.90;;;;;;5053298;28;20480;-74
2023/08/11 11:09:08;;;;;;;0.50;0.50;;;26.60;99.90;;;;;;5054364;28;20045;-75
2023/08/11 11:11:36;;;;;;;0.28;0.28;;;26.70;99.90;;;;;;5054275;28;20045;-75
2023/08/11 11:14:02;;;;;;;0.45;0.45;;;26.80;99.90;;;;;;5054869;28;20476;-75
2023/08/11 11:16:29;;;;;;;;;;;26.90;99.90;;;;;;5054674;28;20052;-74
2023/08/11 11:18:55;;;;;;;0.40;0.40;;;26.90;99.90;;;;;;5054108;28;19916;-74
2023/08/11 11:21:22;;;;;;;0.20;0.20;;;26.90;99.90;;;;;;5053754;28;20044;-74
2023/08/11 11:23:49;;;;;;;0.40;0.40;;;26.90;99.90;;;;;;5054138;28;20158;-75
2023/08/11 11:26:21;;;;;;;0.30;0.30;;;27.00;99.90;;;;;;5053995;28;20055;-74
2023/08/11 11:28:47;;;;;;;1.90;0.65;;;27.00;99.90;;;;;;5054315;28;20065;-75
2023/08/11 11:31:15;;;;;;;0.20;0.20;;;27.00;99.90;;;;;;5054417;28;20041;-75
2023/08/11 11:33:41;;;;;;;0.28;0.28;;;27.10;99.90;;;;;;5054006;28;20280;-75
2023/08/11 11:36:07;;;;;;;0.30;0.30;;;27.20;99.90;;;;;;5054005;28;20051;-75
2023/08/11 11:38:33;;;;;;;0.30;0.30;;;27.20;99.90;;;;;;5053888;28;20465;-75
2023/08/11 11:40:59;;;;;;;0.75;0.60;;;27.20;99.90;;;;;;5053767;28;20282;-75
2023/08/11 11:43:25;;;;;;;0.30;0.30;;;27.30;99.90;;;;;;5054139;28;20033;-75
2023/08/11 11:45:52;;;;;;;0.30;0.30;;;27.40;99.90;;;;;;5053794;28;20469;-75
2023/08/11 11:48:20;;;;;;;1.27;0.50;;;27.50;99.90;;;;;;5053673;28;20102;-75
2023/08/11 11:50:46;;;;;;;0.20;0.20;;;27.50;99.90;;;;;;5053939;28;20040;-75
2023/08/11 11:53:12;;;;;;;0.20;0.20;;;27.60;99.90;;;;;;5053656;28;20389;-75
2023/08/11 11:55:47;;;;;;;0.20;0.20;;;27.60;99.90;;;;;;5054060;28;20036;-75
2023/08/11 11:58:17;;;;;;;0.35;0.30;;;27.60;99.90;;;;;;5053700;28;20377;-75
2023/08/11 12:00:46;;;;;;;0.75;0.30;;;27.70;99.90;;;;;;5053665;28;20432;-75
2023/08/11 12:03:11;;;;;;;0.38;0.30;;;27.70;99.90;;;;;;5053626;28;20380;-74
2023/08/11 12:05:37;;;;;;;0.30;0.30;;;27.80;99.90;;;;;;5053612;28;20127;-74
2023/08/11 12:08:27;;;;;;;0.30;0.30;;;28.00;99.90;;;;;;5053486;28;20366;-75
2023/08/11 12:10:53;;;;;;;0.20;0.20;;;28.20;99.90;;;;;;5053910;28;20051;-75
2023/08/11 12:13:18;;;;;;;0.30;0.30;;;28.40;99.90;;;;;;5053468;28;20381;-74
2023/08/11 12:15:47;;;;;;;0.53;0.53;;;28.50;99.90;;;;;;5053635;28;20044;-75
2023/08/11 12:18:13;;;;;;;0.32;0.30;;;28.50;99.90;;;;;;5053589;28;20051;-75
2023/08/11 12:20:40;;;;;;;0.30;0.30;;;28.60;99.90;;;;;;5053382;28;20045;-75
2023/08/11 12:23:06;;;;;;;0.32;0.32;;;28.70;99.90;;;;;;5053890;28;20040;-75
2023/08/11 12:25:32;;;;;;;0.40;0.40;;;28.80;99.90;;;;;;5053565;28;20041;-75
2023/08/11 12:28:01;;;;;;;0.20;0.20;;;28.90;99.90;;;;;;5053608;28;20267;-75
2023/08/11 12:30:27;;;;;;;0.20;0.20;;;28.90;99.90;;;;;;5053586;28;20115;-75
2023/08/11 12:32:52;;;;;;;0.20;0.20;;;29.00;99.90;;;;;;5053440;28;20498;-75
2023/08/11 12:35:18;;;;;;;0.37;0.37;;;29.00;99.90;;;;;;5057303;28;20037;-75
2023/08/11 12:37:44;;;;;;;0.40;0.40;;;29.00;99.90;;;;;;5057220;28;20041;-75
2023/08/11 12:40:10;;;;;;;0.93;0.70;;;28.90;99.90;;;;;;5057180;28;20481;-75
2023/08/11 12:42:36;;;;;;;0.47;0.47;;;28.80;99.90;;;;;;5056964;28;20783;-75
2023/08/11 12:45:07;;;;;;;0.20;0.20;;;28.80;99.90;;;;;;5057122;28;20037;-75